Aérodrome :
LOGIN :

S'inscrire | Disclaimer

   EN    FR    IT 

 










Légende :    VFR   VFR Marginal   IFR   IFR Intensif   IFR Très Intensif
Visi : 
Plafond : 
>= 8 km
>= 3000ft
5 à 8 km
1000 à 3000 ft
1500m à 5 km
500 à 1000 ft
800 à 1500m
200 à 500 ft
< 800m
< 200 ft
Symboles :   Orages  Brouillard  Fortes neiges  Fortes précipitations  Vent > 20 kt
SIGMETs :   Divers  Orages  Givrage  Turbulence  Onde Orograph.  Cendres Volcan.






- Altitude de l'aérodrome : 124 ft
- Code IATA : NHT


EGWU - RAF Northolt

DERNIER METAR :
  • 240950Z 17006KT 0800 SN OVC005 01/M01 Q0996 TEMPO 4000 -SN BKN010

METARs EXPIRÉS :
  • 240942Z 17007KT 9999 4000W -SN SCT012 BKN030 OVC060 01/M01 Q0996 TEMPO 2000 SN BKN005 RMK GRN TEMPO YLO2
  • 240850Z 10007KT 9999 VCSH SCT030 BKN060 00/M01 Q0996 BECGM 4000 - SN BKN012
  • 240821Z 10006KT 9999 SCT034 OVC100 M00/M01 Q0996 BECMG BKN015 RMK BLU BECMG WHT

TAF AMD TAF EGWU
Valide du 24 à 07h jusqu'au 25 à 00h UTC


240710Z 2407/2424 12007KT CAVOK
PROB30 2406/2408 6000 BR
BECMG 2407/2410 4000 -SN BKN012
PROB40
TEMPO 2410/2415 1200 SN BKN006 OVC012
BECMG 2414/2416 9999 NSW BKN018
PROB30 2415/2420 2000 SN SCT006 OVC012
BECMG 2420/2423 CAVOK



MET'MAP, la Météo Aéronautique d'un coup d'oeil ! - Copyright ORBIFLY Décembre 2007 - Disclaimer

ORBIFLY MET'MAP TEAM :

Programmation & Développement : Alexandra Zaïnal
Sur une idée originale de : Baudouin d'Aumeries
Assistance à la programmation : Marc-Olivier Méhu
Soutien technique & logistique : Manuel Goepfert

Contact : metmap@orbifly.com




SOURCES & CREDITS :

   NOAA